Rishon LeZiyyon, Israel
Current Conditions -  °F | °C
As of 7:20 PM on Monday 24 Nov 2014 (Local Time) from LLBG Reporting Station
Clear Clear  
Wind Chill: 59°   Ceiling: Unl
Heat Index: 59°   Visibility: 6mi
Dew Point: 54°   Wind: 2mph
Humidity: 82%   Direction: NA
Pressure: 29.94"   Gusts: NA
Location:  31.96°N, 34.8°E
Report Text: LLBG 241620Z VRB02KT CAVOK 15/12 Q1014 NOSIG RMK BKN090
Loading
Personal Weather Stations






























Interactive Weather Map New forecast layout! Learn more

10-Day Weather Forecast

Advertisements
Track Severe Weather on mobile